Time;durP1;ratioP1;P1;durP2;ratioP2;P2;SDS_P1;SDS_P2;PMS_P1;PMS_P2;Temp;Humidity;BMP_temperature;BMP_pressure;BME280_temperature;BME280_humidity;BME280_pressure;Samples;Min_cycle;Max_cycle;Signal;HPM_P1;HPM_P2
2021/05/10 00:01:59;;;;;;;0.10;0.10;;;16.90;99.90;;;;;;5078091;28;20029;-81
2021/05/10 00:04:25;;;;;;;0.00;0.00;;;17.00;99.90;;;;;;5074278;28;20036;-80
2021/05/10 00:06:51;;;;;;;0.10;0.10;;;16.80;99.90;;;;;;5068668;28;20040;-80
2021/05/10 00:09:16;;;;;;;0.03;0.03;;;16.60;99.90;;;;;;5083018;28;20055;-80
2021/05/10 00:11:56;;;;;;;0.00;0.00;;;16.60;99.90;;;;;;5075999;28;20028;-80
2021/05/10 00:14:39;;;;;;;0.00;0.00;;;16.70;99.90;;;;;;5077395;28;20936;-80
2021/05/10 00:17:05;;;;;;;0.03;0.03;;;16.70;99.90;;;;;;5075736;28;20867;-80
2021/05/10 00:19:31;;;;;;;0.20;0.20;;;16.80;99.90;;;;;;5061571;28;20030;-81
2021/05/10 00:21:57;;;;;;;0.10;0.10;;;16.70;99.90;;;;;;5068886;28;20028;-81
2021/05/10 00:24:22;;;;;;;0.20;0.10;;;16.80;99.90;;;;;;5070662;28;20036;-80
2021/05/10 00:26:48;;;;;;;0.03;0.03;;;16.80;99.90;;;;;;5085314;28;20652;-80
2021/05/10 00:29:17;;;;;;;0.00;0.00;;;16.80;99.90;;;;;;5074112;28;20077;-81
2021/05/10 00:31:44;;;;;;;0.20;0.20;;;16.70;99.90;;;;;;5069405;28;20553;-80
2021/05/10 00:34:09;;;;;;;0.00;0.00;;;16.70;99.90;;;;;;5067404;28;20578;-80
2021/05/10 00:36:35;;;;;;;0.17;0.17;;;16.70;99.90;;;;;;5084195;28;20297;-80
2021/05/10 00:39:01;;;;;;;0.10;0.10;;;16.70;99.90;;;;;;5079756;28;20036;-80
2021/05/10 00:41:27;;;;;;;0.03;0.03;;;16.70;99.90;;;;;;5074208;28;20032;-80
2021/05/10 00:43:52;;;;;;;0.10;0.10;;;16.70;99.90;;;;;;5076701;28;20409;-80
2021/05/10 00:46:18;;;;;;;0.00;0.00;;;16.70;99.90;;;;;;5086377;28;20032;-80
2021/05/10 00:48:44;;;;;;;0.00;0.00;;;16.60;99.90;;;;;;5080200;28;20086;-80
2021/05/10 00:51:09;;;;;;;0.00;0.00;;;16.60;99.90;;;;;;5061456;28;20028;-80
2021/05/10 00:53:35;;;;;;;0.10;0.10;;;16.60;99.90;;;;;;5083489;28;20020;-80
2021/05/10 00:56:01;;;;;;;0.00;0.00;;;16.60;99.90;;;;;;5072819;28;20039;-80
2021/05/10 00:58:27;;;;;;;0.10;0.10;;;16.60;99.90;;;;;;5078864;28;20025;-80
2021/05/10 01:00:53;;;;;;;0.43;0.43;;;16.70;99.90;;;;;;5080727;28;20028;-80
2021/05/10 01:03:20;;;;;;;0.10;0.10;;;16.60;99.90;;;;;;5078699;28;20423;-80
2021/05/10 01:05:46;;;;;;;0.10;0.10;;;16.60;99.90;;;;;;5071885;28;20028;-80
2021/05/10 01:08:12;;;;;;;0.10;0.10;;;16.70;99.90;;;;;;5061972;28;20028;-79
2021/05/10 01:10:37;;;;;;;0.13;0.13;;;16.70;99.90;;;;;;5083076;28;21082;-80
2021/05/10 01:13:08;;;;;;;0.10;0.10;;;16.60;99.90;;;;;;5075073;28;20020;-79
2021/05/10 01:15:38;;;;;;;0.10;0.10;;;16.50;99.90;;;;;;5088585;28;20053;-80
2021/05/10 01:18:05;;;;;;;0.10;0.10;;;16.50;99.90;;;;;;5072747;28;20604;-80
2021/05/10 01:20:32;;;;;;;;;;;16.50;99.90;;;;;;5071361;28;20411;-79
2021/05/10 01:22:58;;;;;;;0.10;0.10;;;16.50;99.90;;;;;;5082230;28;20383;-79
2021/05/10 01:25:26;;;;;;;0.00;0.00;;;16.30;99.90;;;;;;5072758;28;20032;-79
2021/05/10 01:28:08;;;;;;;0.00;0.00;;;16.40;99.90;;;;;;5070586;28;20026;-79
2021/05/10 01:30:50;;;;;;;0.10;0.10;;;16.30;99.90;;;;;;5072845;28;20522;-80
2021/05/10 01:33:18;;;;;;;0.05;0.05;;;16.40;99.90;;;;;;5068198;28;20082;-80
2021/05/10 01:35:47;;;;;;;0.10;0.10;;;16.30;99.90;;;;;;5074437;28;20073;-80
2021/05/10 01:38:14;;;;;;;0.17;0.17;;;16.20;99.90;;;;;;5084686;28;20032;-79
2021/05/10 01:40:41;;;;;;;0.10;0.10;;;16.20;99.90;;;;;;5071184;28;20028;-80
2021/05/10 01:43:07;;;;;;;0.00;0.00;;;16.20;99.90;;;;;;5070550;28;20104;-79
2021/05/10 01:45:34;;;;;;;0.00;0.00;;;16.20;99.90;;;;;;5071555;28;20032;-80
2021/05/10 01:48:03;;;;;;;0.08;0.08;;;16.20;99.90;;;;;;5083657;28;20035;-80
2021/05/10 01:50:29;;;;;;;0.00;0.00;;;16.20;99.90;;;;;;5087575;28;20407;-80
2021/05/10 01:52:56;;;;;;;0.80;0.75;;;16.20;99.90;;;;;;5074869;28;20557;-80
2021/05/10 01:55:23;;;;;;;0.65;0.65;;;16.20;99.90;;;;;;5069054;28;20038;-80
2021/05/10 01:57:54;;;;;;;0.10;0.10;;;16.10;99.90;;;;;;5078379;28;20192;-80
2021/05/10 02:00:42;;;;;;;0.52;0.52;;;16.10;99.90;;;;;;5076237;28;20162;-80
2021/05/10 02:03:19;;;;;;;0.00;0.00;;;16.10;99.90;;;;;;5078145;28;20029;-80
2021/05/10 02:05:47;;;;;;;0.00;0.00;;;16.00;99.90;;;;;;5073208;28;20033;-80
2021/05/10 02:08:13;;;;;;;0.10;0.10;;;16.10;99.90;;;;;;5084308;28;20024;-80
2021/05/10 02:10:41;;;;;;;0.15;0.15;;;16.00;99.90;;;;;;5086472;28;20052;-81
2021/05/10 02:13:11;;;;;;;0.10;0.10;;;16.10;99.90;;;;;;5080122;28;20673;-81
2021/05/10 02:15:44;;;;;;;0.10;0.10;;;16.10;99.90;;;;;;5080013;28;20032;-81
2021/05/10 02:18:11;;;;;;;0.10;0.10;;;16.10;99.90;;;;;;5076682;28;20029;-81
2021/05/10 02:20:38;;;;;;;;;;;16.00;99.90;;;;;;5090785;28;20504;-81
2021/05/10 02:23:15;;;;;;;0.22;0.22;;;16.00;99.90;;;;;;5091171;28;19915;-81
2021/05/10 02:25:46;;;;;;;0.20;0.20;;;16.00;99.90;;;;;;5078208;28;20035;-80
2021/05/10 02:28:14;;;;;;;0.22;0.22;;;16.00;99.90;;;;;;5059541;28;20033;-81
2021/05/10 02:30:41;;;;;;;0.10;0.10;;;15.90;99.90;;;;;;5089677;28;20039;-80
2021/05/10 02:33:10;;;;;;;0.00;0.00;;;16.00;99.90;;;;;;5090334;28;20036;-80
2021/05/10 02:35:37;;;;;;;0.10;0.10;;;16.00;99.90;;;;;;5075187;28;20170;-81
2021/05/10 02:38:03;;;;;;;0.65;0.63;;;16.00;99.90;;;;;;5070182;28;20084;-81
2021/05/10 02:40:29;;;;;;;0.30;0.30;;;16.00;99.90;;;;;;5075689;28;20032;-81
2021/05/10 02:42:55;;;;;;;0.10;0.10;;;15.90;99.90;;;;;;5074164;28;20032;-81
2021/05/10 02:45:22;;;;;;;0.30;0.30;;;16.00;99.90;;;;;;5081327;28;20262;-81
2021/05/10 02:47:49;;;;;;;0.10;0.10;;;16.00;99.90;;;;;;5089903;28;20016;-81
2021/05/10 02:50:20;;;;;;;0.10;0.10;;;16.00;99.90;;;;;;5090475;28;20031;-81
2021/05/10 02:52:47;;;;;;;0.00;0.00;;;16.10;99.90;;;;;;5072496;28;20063;-80
2021/05/10 02:55:13;;;;;;;0.20;0.20;;;16.00;99.90;;;;;;5087677;28;20130;-81
2021/05/10 02:57:39;;;;;;;0.00;0.00;;;16.00;99.90;;;;;;5077518;28;20487;-81
2021/05/10 03:00:07;;;;;;;0.10;0.10;;;16.00;99.90;;;;;;5078086;28;20032;-80
2021/05/10 03:02:33;;;;;;;0.00;0.00;;;16.00;99.90;;;;;;5076738;28;20111;-81
2021/05/10 03:04:59;;;;;;;0.00;0.00;;;15.90;99.90;;;;;;5069574;28;20111;-80
2021/05/10 03:07:25;;;;;;;0.03;0.03;;;15.80;99.90;;;;;;5075952;28;20028;-80
2021/05/10 03:09:50;;;;;;;0.00;0.00;;;15.80;99.90;;;;;;5089957;28;20531;-80
2021/05/10 03:12:16;;;;;;;0.10;0.10;;;15.80;99.90;;;;;;5084060;28;20103;-80
2021/05/10 03:14:42;;;;;;;0.00;0.00;;;15.50;99.90;;;;;;5081998;28;20480;-80
2021/05/10 03:17:08;;;;;;;0.00;0.00;;;15.20;99.90;;;;;;5069231;28;20016;-80
2021/05/10 03:19:34;;;;;;;0.08;0.08;;;15.10;99.90;;;;;;5069882;28;20032;-80
2021/05/10 03:21:59;;;;;;;0.15;0.15;;;15.00;99.90;;;;;;5069549;28;20024;-80
2021/05/10 03:24:25;;;;;;;0.15;0.15;;;14.70;99.90;;;;;;5069487;28;20420;-81
2021/05/10 03:26:51;;;;;;;0.00;0.00;;;14.60;99.90;;;;;;5069647;28;20525;-80
2021/05/10 03:29:17;;;;;;;0.00;0.00;;;14.50;99.90;;;;;;5068627;28;20456;-81
2021/05/10 03:31:42;;;;;;;0.00;0.00;;;14.40;99.90;;;;;;5068363;28;20086;-81
2021/05/10 03:34:08;;;;;;;0.30;0.30;;;14.40;99.90;;;;;;5069467;28;20033;-80
2021/05/10 03:36:34;;;;;;;0.10;0.10;;;14.30;99.90;;;;;;5070297;28;20051;-81
2021/05/10 03:39:01;;;;;;;0.00;0.00;;;14.40;99.90;;;;;;5069454;28;20518;-81
2021/05/10 03:41:27;;;;;;;;;;;14.40;99.90;;;;;;5087648;28;20028;-80
2021/05/10 03:43:52;;;;;;;0.00;0.00;;;14.30;99.90;;;;;;5088520;28;20295;-80
2021/05/10 03:46:18;;;;;;;0.20;0.20;;;14.30;99.90;;;;;;5089017;28;20103;-80
2021/05/10 03:48:44;;;;;;;0.20;0.20;;;14.30;99.90;;;;;;5089254;28;20028;-80
2021/05/10 03:51:10;;;;;;;0.20;0.20;;;14.40;99.90;;;;;;5075054;28;20072;-80
2021/05/10 03:53:35;;;;;;;0.00;0.00;;;14.30;99.90;;;;;;5066688;28;20761;-79
2021/05/10 03:56:01;;;;;;;0.10;0.10;;;14.20;99.90;;;;;;5082920;28;20559;-79
2021/05/10 03:58:27;;;;;;;0.17;0.17;;;14.30;99.90;;;;;;5088542;28;20688;-80
2021/05/10 04:00:53;;;;;;;0.03;0.03;;;14.20;99.90;;;;;;5087427;28;20043;-80
2021/05/10 04:03:21;;;;;;;0.03;0.03;;;14.30;99.90;;;;;;5070061;28;20103;-81
2021/05/10 04:08:42;;;;;;;0.10;0.10;;;14.30;99.90;;;;;;5072813;28;20108;-80
2021/05/10 04:11:11;;;;;;;0.00;0.00;;;14.20;99.90;;;;;;5048737;28;20064;-80
2021/05/10 04:16:06;;;;;;;0.10;0.10;;;14.30;99.90;;;;;;5083145;28;20032;-80
2021/05/10 04:18:33;;;;;;;0.10;0.10;;;14.30;99.90;;;;;;5068452;28;20024;-80
2021/05/10 04:20:59;;;;;;;0.00;0.00;;;14.30;99.90;;;;;;5068269;28;20033;-80
2021/05/10 04:23:25;;;;;;;0.00;0.00;;;14.20;99.90;;;;;;5068674;28;20376;-80
2021/05/10 04:25:53;;;;;;;1.40;0.40;;;14.20;99.90;;;;;;5068531;28;20035;-80
2021/05/10 04:28:19;;;;;;;0.10;0.10;;;14.20;99.90;;;;;;5075282;28;20036;-80
2021/05/10 04:30:45;;;;;;;0.00;0.00;;;14.20;99.90;;;;;;5086822;28;20024;-80
2021/05/10 04:33:12;;;;;;;0.45;0.45;;;14.20;99.90;;;;;;5079313;28;20040;-80
2021/05/10 04:35:38;;;;;;;0.00;0.00;;;14.10;99.90;;;;;;5080132;28;20144;-80
2021/05/10 04:38:09;;;;;;;0.00;0.00;;;14.20;99.90;;;;;;5089145;28;20046;-80
2021/05/10 04:40:39;;;;;;;0.00;0.00;;;14.20;99.90;;;;;;5075044;28;20139;-80
2021/05/10 04:43:06;;;;;;;5.90;0.47;;;14.20;99.90;;;;;;5068200;28;20500;-80
2021/05/10 04:45:32;;;;;;;0.10;0.10;;;14.30;99.90;;;;;;5081077;28;20104;-82
2021/05/10 04:47:58;;;;;;;0.10;0.10;;;14.30;99.90;;;;;;5085913;28;20107;-82
2021/05/10 04:50:24;;;;;;;0.00;0.00;;;14.30;99.90;;;;;;5078406;28;20043;-82
2021/05/10 04:52:49;;;;;;;0.00;0.00;;;14.30;99.90;;;;;;5068540;28;20032;-83
2021/05/10 04:55:15;;;;;;;0.00;0.00;;;14.20;99.90;;;;;;5068630;28;20071;-81
2021/05/10 04:57:43;;;;;;;0.00;0.00;;;14.20;99.90;;;;;;5068590;28;20033;-81
2021/05/10 05:00:11;;;;;;;0.20;0.20;;;14.20;99.90;;;;;;5082746;28;20028;-80
2021/05/10 05:02:39;;;;;;;0.10;0.10;;;14.20;99.90;;;;;;5078552;28;20116;-81
2021/05/10 05:05:09;;;;;;;0.10;0.10;;;14.30;99.90;;;;;;5052985;28;20048;-82
2021/05/10 05:07:35;;;;;;;0.00;0.00;;;14.40;99.90;;;;;;5060938;28;20041;-83
2021/05/10 05:10:02;;;;;;;0.00;0.00;;;14.50;99.90;;;;;;5065242;28;20056;-82
2021/05/10 05:12:28;;;;;;;0.00;0.00;;;14.30;99.90;;;;;;5064078;28;20029;-82
2021/05/10 05:14:54;;;;;;;0.93;0.65;;;14.10;99.90;;;;;;5053264;28;20025;-82
2021/05/10 05:17:20;;;;;;;0.38;0.38;;;14.10;99.90;;;;;;5054031;28;20492;-81
2021/05/10 05:19:46;;;;;;;0.10;0.10;;;14.20;99.90;;;;;;5074406;28;20028;-82
2021/05/10 05:22:11;;;;;;;0.00;0.00;;;14.30;99.90;;;;;;5069928;28;20028;-82
2021/05/10 05:24:37;;;;;;;0.00;0.00;;;14.40;99.90;;;;;;5062330;28;20035;-81
2021/05/10 05:27:03;;;;;;;3.15;0.52;;;14.30;99.90;;;;;;5064518;28;20028;-81
2021/05/10 05:29:29;;;;;;;0.03;0.03;;;14.30;99.90;;;;;;5064780;28;20020;-80
2021/05/10 05:31:57;;;;;;;0.38;0.30;;;14.40;99.90;;;;;;5083227;28;20036;-81
2021/05/10 05:34:24;;;;;;;0.03;0.03;;;14.50;99.90;;;;;;5061408;28;20040;-81
2021/05/10 05:36:50;;;;;;;0.22;0.22;;;14.60;99.90;;;;;;5060365;28;20048;-83
2021/05/10 05:39:16;;;;;;;0.20;0.20;;;14.70;99.90;;;;;;5054553;28;20074;-82
2021/05/10 05:41:42;;;;;;;0.00;0.00;;;14.70;99.90;;;;;;5072070;28;20033;-84
2021/05/10 05:44:08;;;;;;;2.70;0.43;;;14.70;99.90;;;;;;5092007;28;20042;-84
2021/05/10 05:46:39;;;;;;;0.10;0.10;;;14.70;99.90;;;;;;5090338;28;20028;-84
2021/05/10 05:49:05;;;;;;;0.13;0.13;;;14.70;99.90;;;;;;5091868;28;20495;-84
2021/05/10 05:51:31;;;;;;;0.00;0.00;;;14.80;99.90;;;;;;5091483;28;20035;-83
2021/05/10 05:53:57;;;;;;;0.00;0.00;;;14.80;99.90;;;;;;5080340;28;20033;-83
2021/05/10 05:56:25;;;;;;;0.00;0.00;;;14.70;99.90;;;;;;5059098;28;20071;-83
2021/05/10 05:58:51;;;;;;;0.20;0.20;;;14.50;99.90;;;;;;5069086;28;20020;-83
2021/05/10 06:01:17;;;;;;;0.60;0.47;;;14.40;99.90;;;;;;5068952;28;20021;-83
2021/05/10 06:03:43;;;;;;;1.33;0.57;;;14.60;99.90;;;;;;5057354;28;20108;-83
2021/05/10 06:06:11;;;;;;;0.20;0.20;;;14.90;99.90;;;;;;5063202;28;20458;-83
2021/05/10 06:08:37;;;;;;;0.00;0.00;;;14.90;99.90;;;;;;5046221;28;20249;-83
2021/05/10 06:11:04;;;;;;;0.22;0.22;;;14.80;99.90;;;;;;5085040;28;20028;-82
2021/05/10 06:13:30;;;;;;;0.10;0.10;;;15.00;99.90;;;;;;5069167;28;20496;-83
2021/05/10 06:15:57;;;;;;;0.00;0.00;;;15.00;99.90;;;;;;5061392;28;20021;-83
2021/05/10 06:18:24;;;;;;;0.32;0.32;;;15.20;99.90;;;;;;5074103;28;20400;-84
2021/05/10 06:20:50;;;;;;;0.10;0.10;;;15.40;99.90;;;;;;5071989;28;20020;-83
2021/05/10 06:23:16;;;;;;;0.10;0.10;;;15.50;99.90;;;;;;5059962;28;20035;-83
2021/05/10 06:25:42;;;;;;;0.73;0.73;;;15.40;99.90;;;;;;5069308;28;20711;-84
2021/05/10 06:28:08;;;;;;;0.00;0.00;;;15.40;99.90;;;;;;5063935;28;20051;-82
2021/05/10 06:30:34;;;;;;;0.10;0.10;;;15.30;99.90;;;;;;5071037;28;20035;-84
2021/05/10 06:33:00;;;;;;;0.00;0.00;;;15.40;99.90;;;;;;5057903;28;21555;-83
2021/05/10 06:35:26;;;;;;;0.00;0.00;;;15.60;99.90;;;;;;5062464;28;20017;-82
2021/05/10 06:37:51;;;;;;;0.10;0.10;;;15.80;99.90;;;;;;5067018;28;20047;-83
2021/05/10 06:40:18;;;;;;;2.43;0.87;;;19.00;99.90;;;;;;5071888;28;20112;-83
2021/05/10 06:42:44;;;;;;;0.00;0.00;;;19.30;99.90;;;;;;5066722;28;20500;-83
2021/05/10 06:45:10;;;;;;;0.00;0.00;;;19.10;99.90;;;;;;5074567;28;20093;-83
2021/05/10 06:47:40;;;;;;;0.40;0.40;;;18.30;99.90;;;;;;5079388;28;20563;-83
2021/05/10 06:50:07;;;;;;;0.00;0.00;;;17.70;99.90;;;;;;5078507;28;20036;-83
2021/05/10 06:52:36;;;;;;;0.00;0.00;;;17.60;99.90;;;;;;5072902;28;20035;-84
2021/05/10 06:55:03;;;;;;;0.00;0.00;;;17.90;99.90;;;;;;5070989;28;20096;-84
2021/05/10 06:57:29;;;;;;;0.00;0.00;;;17.00;99.90;;;;;;5073638;28;20029;-85
2021/05/10 06:59:55;;;;;;;1.50;1.13;;;16.90;99.90;;;;;;5080931;28;20389;-83
2021/05/10 07:02:22;;;;;;;1.50;0.63;;;16.70;99.90;;;;;;5078361;28;20431;-83
2021/05/10 07:04:49;;;;;;;0.10;0.10;;;16.00;99.90;;;;;;5069433;28;20036;-83
2021/05/10 07:07:14;;;;;;;0.10;0.10;;;16.10;99.90;;;;;;5066093;28;20028;-84
2021/05/10 07:09:41;;;;;;;0.30;0.30;;;16.30;99.90;;;;;;5078528;28;20058;-84
2021/05/10 07:12:07;;;;;;;0.17;0.17;;;16.10;99.90;;;;;;5088128;28;20043;-83
2021/05/10 07:14:33;;;;;;;0.20;0.20;;;15.90;99.90;;;;;;5076951;28;20036;-83
2021/05/10 07:16:59;;;;;;;0.00;0.00;;;15.90;99.90;;;;;;5060288;28;20115;-83
2021/05/10 07:19:26;;;;;;;0.10;0.10;;;16.10;99.90;;;;;;5080730;28;20020;-83
2021/05/10 07:21:52;;;;;;;;;;;15.90;99.90;;;;;;5077947;28;20555;-83
2021/05/10 07:24:18;;;;;;;0.10;0.10;;;15.40;99.90;;;;;;5071144;28;20026;-84
2021/05/10 07:26:45;;;;;;;0.10;0.10;;;15.00;99.90;;;;;;5069388;28;20271;-84
2021/05/10 07:29:10;;;;;;;0.63;0.52;;;14.80;99.90;;;;;;5074734;28;20103;-84
2021/05/10 07:31:36;;;;;;;0.10;0.10;;;16.10;99.90;;;;;;5078322;28;20630;-84
2021/05/10 07:34:03;;;;;;;0.10;0.10;;;15.50;99.90;;;;;;5072206;28;20045;-84
2021/05/10 07:36:28;;;;;;;2.17;0.80;;;15.10;99.90;;;;;;5070958;28;20380;-84
2021/05/10 07:38:54;;;;;;;0.20;0.20;;;14.90;99.90;;;;;;5076301;28;20081;-84
2021/05/10 07:41:20;;;;;;;0.43;0.43;;;18.80;99.90;;;;;;5065719;28;20020;-84
2021/05/10 07:43:46;;;;;;;0.00;0.00;;;18.00;99.90;;;;;;5085768;28;20016;-84
2021/05/10 07:46:12;;;;;;;0.30;0.10;;;16.80;99.90;;;;;;5086656;28;20095;-83
2021/05/10 07:48:38;;;;;;;0.00;0.00;;;16.70;99.90;;;;;;5086222;28;20268;-83
2021/05/10 07:51:04;;;;;;;0.63;0.40;;;19.20;99.90;;;;;;5068698;28;20033;-84
2021/05/10 07:53:30;;;;;;;0.10;0.10;;;17.50;99.90;;;;;;5062781;28;20078;-84
2021/05/10 07:55:56;;;;;;;0.00;0.00;;;18.70;99.90;;;;;;5082770;28;20027;-83
2021/05/10 07:58:25;;;;;;;0.03;0.03;;;21.60;1.00;;;;;;5079605;28;20038;-83
2021/05/10 08:01:01;;;;;;;0.43;0.13;;;20.40;99.90;;;;;;5081244;28;20120;-83
2021/05/10 08:03:29;;;;;;;;;;;19.20;99.90;;;;;;5060990;28;20103;-83
2021/05/10 08:05:55;;;;;;;1.10;0.47;;;23.40;99.90;;;;;;5055687;28;19917;-84
2021/05/10 08:08:22;;;;;;;0.10;0.10;;;26.00;99.90;;;;;;5062726;28;20039;-84
2021/05/10 08:10:49;;;;;;;0.00;0.00;;;22.50;99.90;;;;;;5070229;28;20074;-85
2021/05/10 08:13:15;;;;;;;;;;;21.00;99.90;;;;;;5071015;28;20439;-84
2021/05/10 08:15:40;;;;;;;0.00;0.00;;;19.60;99.90;;;;;;5064461;28;19961;-83
2021/05/10 08:18:07;;;;;;;0.00;0.00;;;18.80;99.90;;;;;;5068921;28;20041;-83
2021/05/10 08:20:33;;;;;;;0.00;0.00;;;18.30;99.90;;;;;;5074678;28;20033;-83
2021/05/10 08:22:59;;;;;;;0.00;0.00;;;18.30;99.90;;;;;;5079059;28;20036;-84
2021/05/10 08:25:25;;;;;;;0.00;0.00;;;24.70;99.90;;;;;;5073679;28;20039;-84
2021/05/10 08:27:50;;;;;;;1.02;0.52;;;25.90;99.90;;;;;;5076166;28;20028;-85
2021/05/10 08:30:24;;;;;;;0.00;0.00;;;27.20;99.90;;;;;;5072058;28;20090;-84
2021/05/10 08:32:51;;;;;;;0.10;0.10;;;26.60;99.90;;;;;;5074102;28;20391;-85
2021/05/10 08:35:17;;;;;;;0.00;0.00;;;29.40;99.90;;;;;;5081505;28;20252;-84
2021/05/10 08:37:43;;;;;;;0.00;0.00;;;21.90;99.90;;;;;;5072137;28;20568;-84
2021/05/10 08:40:09;;;;;;;;;;;20.30;99.90;;;;;;5060762;28;20162;-84
2021/05/10 08:42:35;;;;;;;0.00;0.00;;;20.10;99.90;;;;;;5077699;28;20000;-84
2021/05/10 08:45:01;;;;;;;0.10;0.10;;;21.70;99.90;;;;;;5065852;28;20070;-84
2021/05/10 08:47:35;;;;;;;0.00;0.00;;;24.10;99.90;;;;;;5073138;28;20067;-84
2021/05/10 08:50:04;;;;;;;0.00;0.00;;;21.00;99.90;;;;;;5068860;28;20266;-84
2021/05/10 08:52:30;;;;;;;0.00;0.00;;;19.10;99.90;;;;;;5068847;28;20028;-83
2021/05/10 08:54:57;;;;;;;0.00;0.00;;;19.70;99.90;;;;;;5075238;28;20116;-83
2021/05/10 08:57:23;;;;;;;;;;;21.40;99.90;;;;;;5074513;28;20024;-83
2021/05/10 08:59:50;;;;;;;0.90;0.38;;;26.20;97.80;;;;;;5074276;28;19926;-83
2021/05/10 09:02:28;;;;;;;0.00;0.00;;;23.30;99.40;;;;;;5064649;28;20044;-83
2021/05/10 09:04:54;;;;;;;0.00;0.00;;;21.20;99.90;;;;;;5064801;28;20786;-83
2021/05/10 09:07:26;;;;;;;0.00;0.00;;;25.50;99.90;;;;;;5063511;28;20116;-83
2021/05/10 09:10:08;;;;;;;0.20;0.20;;;28.70;93.40;;;;;;5066936;28;20127;-84
2021/05/10 09:12:55;;;;;;;1.27;0.65;;;32.00;90.10;;;;;;5061236;28;20044;-84
2021/05/10 09:15:30;;;;;;;0.00;0.00;;;31.90;83.80;;;;;;5056419;28;20796;-84
2021/05/10 09:18:02;;;;;;;0.27;0.27;;;30.80;78.80;;;;;;5052756;28;20474;-84
2021/05/10 09:20:31;;;;;;;0.00;0.00;;;28.60;67.60;;;;;;5071605;28;20255;-83
2021/05/10 09:23:03;;;;;;;0.00;0.00;;;32.80;69.60;;;;;;5072072;28;20039;-85
2021/05/10 09:25:34;;;;;;;0.10;0.10;;;31.00;65.00;;;;;;5061046;28;20097;-84
2021/05/10 09:28:10;;;;;;;0.00;0.00;;;29.90;63.60;;;;;;5074510;28;20059;-83
2021/05/10 09:30:37;;;;;;;;;;;22.30;83.00;;;;;;5060845;28;20068;-84
2021/05/10 09:33:02;;;;;;;;;;;20.50;91.10;;;;;;5059559;28;19908;-83
2021/05/10 09:35:46;;;;;;;0.00;0.00;;;19.90;93.20;;;;;;5068276;28;20387;-83
2021/05/10 09:38:13;;;;;;;0.00;0.00;;;19.60;93.90;;;;;;5067430;28;20395;-85
2021/05/10 09:40:48;;;;;;;0.00;0.00;;;27.60;79.50;;;;;;5070037;28;20423;-83
2021/05/10 09:43:35;;;;;;;0.00;0.00;;;30.30;73.20;;;;;;5069693;28;20013;-84
2021/05/10 09:46:12;;;;;;;0.10;0.10;;;31.10;61.90;;;;;;5077516;28;20028;-83
2021/05/10 09:48:40;;;;;;;0.00;0.00;;;31.10;71.20;;;;;;5074373;28;20028;-83
2021/05/10 09:51:11;;;;;;;0.00;0.00;;;30.20;61.80;;;;;;5061973;28;20090;-83
2021/05/10 09:53:41;;;;;;;0.85;0.13;;;30.60;69.30;;;;;;5056694;28;20436;-83
2021/05/10 09:58:53;;;;;;;1.10;0.35;;;27.70;75.50;;;;;;5063408;28;20025;-84
2021/05/10 10:01:22;;;;;;;0.00;0.00;;;30.70;62.60;;;;;;5060303;28;20024;-83
2021/05/10 10:03:57;;;;;;;0.00;0.00;;;31.50;52.70;;;;;;5065916;28;20063;-83
2021/05/10 10:06:24;;;;;;;0.00;0.00;;;31.20;50.50;;;;;;5061570;28;20025;-83
2021/05/10 10:08:50;;;;;;;0.00;0.00;;;33.10;53.00;;;;;;5068863;28;20040;-83
2021/05/10 10:11:18;;;;;;;0.00;0.00;;;30.70;59.20;;;;;;5061871;28;20073;-83
2021/05/10 10:13:48;;;;;;;0.00;0.00;;;30.20;59.10;;;;;;5070700;28;20028;-83
2021/05/10 10:16:22;;;;;;;0.00;0.00;;;31.60;54.40;;;;;;5074634;28;20088;-82
2021/05/10 10:18:50;;;;;;;0.00;0.00;;;30.80;49.60;;;;;;5063537;28;20017;-83
2021/05/10 10:21:19;;;;;;;0.00;0.00;;;29.00;47.80;;;;;;5084093;28;20771;-83
2021/05/10 10:23:52;;;;;;;0.00;0.00;;;31.90;46.40;;;;;;5090009;28;20016;-82
2021/05/10 10:26:18;;;;;;;0.10;0.00;;;27.80;52.90;;;;;;5087413;28;20049;-82
2021/05/10 10:28:47;;;;;;;;;;;23.70;61.00;;;;;;5089942;28;20032;-83
2021/05/10 10:31:15;;;;;;;1.77;0.75;;;25.10;67.20;;;;;;5089666;28;19908;-82
2021/05/10 10:34:00;;;;;;;0.20;0.20;;;27.40;64.20;;;;;;5088619;28;20089;-82
2021/05/10 10:36:36;;;;;;;0.00;0.00;;;28.30;59.30;;;;;;5089952;28;20028;-82
2021/05/10 10:39:22;;;;;;;0.00;0.00;;;26.50;63.50;;;;;;5090493;28;20043;-82
2021/05/10 10:41:53;;;;;;;0.10;0.10;;;25.90;65.60;;;;;;5090535;28;20023;-82
2021/05/10 10:44:42;;;;;;;0.08;0.08;;;24.10;69.10;;;;;;5090235;28;20028;-82
2021/05/10 10:47:44;;;;;;;0.20;0.20;;;23.60;70.50;;;;;;5090654;28;20025;-82
2021/05/10 10:50:26;;;;;;;0.00;0.00;;;29.80;55.20;;;;;;5090469;28;20024;-82
2021/05/10 10:52:57;;;;;;;0.00;0.00;;;26.10;53.10;;;;;;5090371;28;20016;-82
2021/05/10 10:55:33;;;;;;;0.65;0.52;;;24.60;58.40;;;;;;5090048;28;20032;-83
2021/05/10 10:58:14;;;;;;;0.00;0.00;;;23.00;64.50;;;;;;5088847;28;20761;-82
2021/05/10 11:01:23;;;;;;;1.17;0.25;;;22.50;67.30;;;;;;5090218;28;20033;-82
2021/05/10 11:03:49;;;;;;;0.00;0.00;;;23.70;63.00;;;;;;5090337;28;20740;-82
2021/05/10 11:06:15;;;;;;;0.00;0.00;;;22.90;63.90;;;;;;5090293;28;20028;-82
2021/05/10 11:08:51;;;;;;;0.00;0.00;;;22.90;65.40;;;;;;5089895;28;20054;-82
2021/05/10 11:11:34;;;;;;;0.00;0.00;;;22.00;67.00;;;;;;5089904;28;20528;-82
2021/05/10 11:14:03;;;;;;;0.28;0.10;;;21.40;68.90;;;;;;5089055;28;20039;-82
2021/05/10 11:16:51;;;;;;;0.32;0.32;;;20.30;73.40;;;;;;5088485;28;20032;-82
2021/05/10 11:19:46;;;;;;;0.00;0.00;;;20.00;74.40;;;;;;5070763;28;20028;-82
2021/05/10 11:22:40;;;;;;;0.10;0.10;;;25.00;69.70;;;;;;5060962;28;20092;-82
2021/05/10 11:25:36;;;;;;;0.00;0.00;;;22.20;67.60;;;;;;5059957;28;20036;-83
2021/05/10 11:28:27;;;;;;;0.00;0.00;;;24.60;67.40;;;;;;5069947;28;20034;-82
2021/05/10 11:31:04;;;;;;;0.00;0.00;;;22.60;65.70;;;;;;5069359;28;20053;-82
2021/05/10 11:33:51;;;;;;;0.13;0.13;;;21.70;71.70;;;;;;5069428;28;20115;-82
2021/05/10 11:36:23;;;;;;;0.38;0.38;;;21.80;72.20;;;;;;5069634;28;20028;-82
2021/05/10 11:38:53;;;;;;;0.00;0.00;;;22.00;69.30;;;;;;5068302;28;20095;-82
2021/05/10 11:41:30;;;;;;;0.00;0.00;;;21.70;69.40;;;;;;5069531;28;20545;-82
2021/05/10 11:43:58;;;;;;;0.00;0.00;;;21.30;70.50;;;;;;5068967;28;20047;-82
2021/05/10 11:46:37;;;;;;;0.00;0.00;;;21.00;71.80;;;;;;5069633;28;20016;-82
2021/05/10 11:49:08;;;;;;;0.00;0.00;;;19.90;75.10;;;;;;5069511;28;20025;-82
2021/05/10 11:51:40;;;;;;;0.95;0.47;;;20.80;74.70;;;;;;5069089;28;20113;-82
2021/05/10 11:54:08;;;;;;;0.00;0.00;;;22.10;71.30;;;;;;5069120;28;20036;-82
2021/05/10 11:56:41;;;;;;;0.15;0.05;;;21.30;71.20;;;;;;5069270;28;20031;-83
2021/05/10 11:59:35;;;;;;;0.00;0.00;;;21.10;73.50;;;;;;5069348;28;20025;-83
2021/05/10 12:02:02;;;;;;;0.00;0.00;;;21.70;72.90;;;;;;5069455;28;20410;-82
2021/05/10 12:04:30;;;;;;;0.20;0.20;;;21.60;74.90;;;;;;5068909;28;20078;-82
2021/05/10 12:06:57;;;;;;;4.68;0.93;;;20.60;77.70;;;;;;5069153;28;20137;-83
2021/05/10 12:09:46;;;;;;;0.00;0.00;;;20.80;76.20;;;;;;5069030;28;20701;-83
2021/05/10 12:12:17;;;;;;;0.00;0.00;;;20.30;80.00;;;;;;5075830;28;20030;-83
2021/05/10 12:14:47;;;;;;;4.00;0.28;;;20.70;78.40;;;;;;5087897;28;20039;-82
2021/05/10 12:17:23;;;;;;;0.00;0.00;;;20.50;77.70;;;;;;5089256;28;20077;-82
2021/05/10 12:19:59;;;;;;;0.00;0.00;;;20.80;80.00;;;;;;5068559;28;20051;-82
2021/05/10 12:22:40;;;;;;;0.00;0.00;;;20.40;80.20;;;;;;5067459;28;20450;-82
2021/05/10 12:25:13;;;;;;;0.05;0.05;;;20.10;80.60;;;;;;5068411;28;20033;-82
2021/05/10 12:27:45;;;;;;;0.00;0.00;;;20.40;79.50;;;;;;5068696;28;20021;-82
2021/05/10 12:30:14;;;;;;;0.00;0.00;;;20.10;78.60;;;;;;5068428;28;20757;-83
2021/05/10 12:32:41;;;;;;;0.00;0.00;;;20.60;78.20;;;;;;5068646;28;20025;-83
2021/05/10 12:35:10;;;;;;;0.00;0.00;;;21.00;78.20;;;;;;5068067;28;20032;-82
2021/05/10 12:37:45;;;;;;;0.15;0.15;;;21.00;78.40;;;;;;5068521;28;20021;-83
2021/05/10 12:40:13;;;;;;;0.10;0.10;;;21.00;76.10;;;;;;5068215;28;20028;-82
2021/05/10 12:42:39;;;;;;;0.00;0.00;;;21.30;78.70;;;;;;5068212;28;20149;-82
2021/05/10 12:45:08;;;;;;;0.00;0.00;;;21.90;78.10;;;;;;5066509;28;20127;-83
2021/05/10 12:47:44;;;;;;;0.00;0.00;;;21.30;78.90;;;;;;5068346;28;20025;-82
2021/05/10 12:50:12;;;;;;;0.00;0.00;;;21.20;78.20;;;;;;5070728;28;20238;-82
2021/05/10 12:52:49;;;;;;;0.03;0.03;;;20.50;81.20;;;;;;5072572;28;20095;-83
2021/05/10 12:55:20;;;;;;;0.20;0.20;;;20.50;79.50;;;;;;5070173;28;20036;-82
2021/05/10 12:57:47;;;;;;;0.00;0.00;;;20.80;79.60;;;;;;5072094;28;20120;-82
2021/05/10 13:00:39;;;;;;;0.10;0.10;;;21.30;78.00;;;;;;5071967;28;20046;-83
2021/05/10 13:03:06;;;;;;;0.00;0.00;;;22.20;74.10;;;;;;5071888;28;20020;-82
2021/05/10 13:05:37;;;;;;;0.00;0.00;;;22.20;74.40;;;;;;5071953;28;20098;-82
2021/05/10 13:08:05;;;;;;;0.00;0.00;;;21.20;76.30;;;;;;5070711;28;20032;-83
2021/05/10 13:10:31;;;;;;;0.00;0.00;;;21.00;76.30;;;;;;5072032;28;20106;-82